createdAt,value
2023-02-01T00:00:15.630Z,5.61
2023-02-01T00:01:15.872Z,5.63
2023-02-01T00:02:16.580Z,5.64
2023-02-01T00:03:17.301Z,5.65
2023-02-01T00:04:17.980Z,5.63
2023-02-01T00:05:18.696Z,5.63
2023-02-01T00:06:19.412Z,5.60
2023-02-01T00:07:20.115Z,5.60
2023-02-01T00:08:20.823Z,5.57
2023-02-01T00:09:21.538Z,5.58
2023-02-01T00:10:22.612Z,5.60
2023-02-01T00:11:22.937Z,5.58
2023-02-01T00:12:23.641Z,5.57
2023-02-01T00:13:24.345Z,5.58
2023-02-01T00:14:25.057Z,5.61
2023-02-01T00:15:25.775Z,5.60
2023-02-01T00:16:26.528Z,5.58
2023-02-01T00:17:27.156Z,5.60
2023-02-01T00:18:27.866Z,5.60
2023-02-01T00:19:28.577Z,5.60
2023-02-01T00:20:29.632Z,5.58
2023-02-01T00:21:29.856Z,5.58
2023-02-01T00:22:30.555Z,5.58
2023-02-01T00:23:31.258Z,5.58
2023-02-01T00:24:31.978Z,5.57
2023-02-01T00:25:33.134Z,5.60
2023-02-01T00:26:33.400Z,5.61
2023-02-01T00:27:34.074Z,5.61
2023-02-01T00:28:34.795Z,5.61
2023-02-01T00:29:35.500Z,5.61
2023-02-01T00:30:36.649Z,5.64
2023-02-01T00:31:37.027Z,5.63
2023-02-01T00:32:37.739Z,5.61
2023-02-01T00:33:38.444Z,5.58
2023-02-01T00:34:39.157Z,5.58
2023-02-01T00:35:39.877Z,5.58
2023-02-01T00:36:40.577Z,5.57
2023-02-01T00:37:41.290Z,5.56
2023-02-01T00:38:41.994Z,5.53
2023-02-01T00:39:42.706Z,5.53
2023-02-01T00:40:43.623Z,5.51
2023-02-01T00:41:44.338Z,5.51
2023-02-01T00:42:45.068Z,5.51
2023-02-01T00:43:45.779Z,5.53
2023-02-01T00:44:46.603Z,5.53
2023-02-01T00:45:47.624Z,5.53
2023-02-01T00:46:47.981Z,5.53
2023-02-01T00:47:48.642Z,5.56
2023-02-01T00:48:49.361Z,5.53
2023-02-01T00:49:50.069Z,5.49
2023-02-01T00:50:50.801Z,5.48
2023-02-01T00:51:51.506Z,5.48
2023-02-01T00:52:52.227Z,5.46
2023-02-01T00:53:52.926Z,5.46
2023-02-01T00:54:53.646Z,5.46
2023-02-01T00:55:54.628Z,5.46
2023-02-01T00:56:55.337Z,5.46
2023-02-01T00:57:56.035Z,5.43
2023-02-01T00:58:56.754Z,5.43
2023-02-01T00:59:57.450Z,5.43
2023-02-01T01:00:58.666Z,5.43
2023-02-01T01:01:58.949Z,5.43
2023-02-01T01:02:59.595Z,5.42
2023-02-01T01:04:00.296Z,5.43
2023-02-01T01:05:01.008Z,5.43
2023-02-01T01:06:02.123Z,5.45
2023-02-01T01:07:02.330Z,5.43
2023-02-01T01:08:03.035Z,5.45
2023-02-01T01:09:03.743Z,5.45
2023-02-01T01:10:04.491Z,5.46
2023-02-01T01:11:05.636Z,5.48
2023-02-01T01:12:05.843Z,5.48
2023-02-01T01:13:06.539Z,5.48
2023-02-01T01:14:07.263Z,5.45
2023-02-01T01:15:07.962Z,5.46
2023-02-01T01:16:09.178Z,5.46
2023-02-01T01:17:09.398Z,5.49
2023-02-01T01:18:10.033Z,5.48
2023-02-01T01:19:10.731Z,5.46
2023-02-01T01:20:11.438Z,5.48
2023-02-01T01:21:12.633Z,5.48
2023-02-01T01:22:12.852Z,5.48
2023-02-01T01:23:13.554Z,5.49
2023-02-01T01:24:14.258Z,5.49
2023-02-01T01:25:14.967Z,5.51
2023-02-01T01:26:16.146Z,5.53
2023-02-01T01:27:16.337Z,5.54
2023-02-01T01:28:17.039Z,5.53
2023-02-01T01:29:17.752Z,5.49
2023-02-01T01:30:18.460Z,5.48
2023-02-01T01:31:19.707Z,5.48
2023-02-01T01:32:19.914Z,5.45
2023-02-01T01:33:20.549Z,5.48
2023-02-01T01:34:21.257Z,5.45
2023-02-01T01:35:21.967Z,5.45
2023-02-01T01:36:23.121Z,5.40
2023-02-01T01:37:23.332Z,5.40
2023-02-01T01:38:24.051Z,5.36
2023-02-01T01:39:24.741Z,5.33
2023-02-01T01:40:25.451Z,5.35
2023-02-01T01:41:26.628Z,5.35
2023-02-01T01:42:26.833Z,5.35
2023-02-01T01:43:27.537Z,5.38
2023-02-01T01:44:28.281Z,5.38
2023-02-01T01:45:29.004Z,5.39
2023-02-01T01:46:30.186Z,5.39
2023-02-01T01:47:30.445Z,5.39
2023-02-01T01:48:31.092Z,5.39
2023-02-01T01:49:31.790Z,5.39
2023-02-01T01:50:32.491Z,5.40
2023-02-01T01:51:33.227Z,5.40
2023-02-01T01:52:33.930Z,5.39
2023-02-01T01:53:34.637Z,5.38
2023-02-01T01:54:35.342Z,5.35
2023-02-01T01:55:36.048Z,5.36
2023-02-01T01:56:36.765Z,5.36
2023-02-01T01:57:37.472Z,5.38
2023-02-01T01:58:38.185Z,5.38
2023-02-01T01:59:38.899Z,5.35
2023-02-01T02:00:39.643Z,5.31
2023-02-01T02:01:40.667Z,5.28
2023-02-01T02:02:41.382Z,5.27
2023-02-01T02:03:42.020Z,5.24
2023-02-01T02:04:42.741Z,5.25
2023-02-01T02:05:43.443Z,5.27
2023-02-01T02:06:44.161Z,5.28
2023-02-01T02:07:44.870Z,5.27
2023-02-01T02:08:45.581Z,5.25
2023-02-01T02:09:59.453Z,5.28
2023-02-01T02:10:47.904Z,5.31
2023-02-01T02:11:47.620Z,5.30
2023-02-01T02:12:48.339Z,5.31
2023-02-01T02:13:49.046Z,5.30
2023-02-01T02:14:49.759Z,5.27
2023-02-01T02:15:50.475Z,5.28
2023-02-01T02:16:51.185Z,5.28
2023-02-01T02:17:51.941Z,5.36
2023-02-01T02:18:52.606Z,5.35
2023-02-01T02:19:53.366Z,5.33
2023-02-01T02:20:54.062Z,5.33
2023-02-01T02:21:55.127Z,5.31
2023-02-01T02:22:55.344Z,5.35
2023-02-01T02:23:56.041Z,5.35
2023-02-01T02:24:56.756Z,5.31
2023-02-01T02:25:57.475Z,5.30
2023-02-01T02:26:58.191Z,5.30
2023-02-01T02:27:58.894Z,5.35
2023-02-01T02:28:59.607Z,5.35
2023-02-01T02:30:00.304Z,5.31
2023-02-01T02:31:01.065Z,5.31
2023-02-01T02:32:01.735Z,5.33
2023-02-01T02:33:02.513Z,5.33
2023-02-01T02:34:03.192Z,5.28
2023-02-01T02:35:03.894Z,5.25
2023-02-01T02:36:04.608Z,5.25
2023-02-01T02:37:05.319Z,5.25
2023-02-01T02:38:06.025Z,5.25
2023-02-01T02:39:06.779Z,5.27
2023-02-01T02:40:07.444Z,5.30
2023-02-01T02:41:08.156Z,5.31
2023-02-01T02:42:08.869Z,5.31
2023-02-01T02:43:09.576Z,5.33
2023-02-01T02:44:10.298Z,5.33
2023-02-01T02:45:11.005Z,5.30
2023-02-01T02:46:11.834Z,5.30
2023-02-01T02:47:12.530Z,5.33
2023-02-01T02:48:13.297Z,5.36
2023-02-01T02:49:13.938Z,5.36
2023-02-01T02:50:14.639Z,5.38
2023-02-01T02:51:15.348Z,5.35
2023-02-01T02:52:16.149Z,5.33
2023-02-01T02:53:16.897Z,5.33
2023-02-01T02:54:17.606Z,5.35
2023-02-01T02:55:18.315Z,5.31
2023-02-01T02:56:19.048Z,5.28
2023-02-01T02:57:19.747Z,5.27
2023-02-01T02:58:20.452Z,5.25
2023-02-01T02:59:21.166Z,5.24
2023-02-01T03:00:22.213Z,5.22
2023-02-01T03:01:22.659Z,5.21
2023-02-01T03:02:23.354Z,5.20
2023-02-01T03:03:24.087Z,5.27
2023-02-01T03:04:24.918Z,5.28
2023-02-01T03:05:25.545Z,5.33
2023-02-01T03:06:26.267Z,5.31
2023-02-01T03:07:27.137Z,5.33
2023-02-01T03:08:27.840Z,5.31
2023-02-01T03:09:28.558Z,5.31
2023-02-01T03:10:29.266Z,5.33
2023-02-01T03:11:29.973Z,5.35
2023-02-01T03:12:30.691Z,5.33
2023-02-01T03:13:31.396Z,5.30
2023-02-01T03:14:32.107Z,5.31
2023-02-01T03:15:32.812Z,5.27
2023-02-01T03:16:33.526Z,5.28
2023-02-01T03:17:34.237Z,5.30
2023-02-01T03:18:34.998Z,5.30
2023-02-01T03:19:35.637Z,5.25
2023-02-01T03:20:36.343Z,5.25
2023-02-01T03:21:37.055Z,5.24
2023-02-01T03:22:37.769Z,5.21
2023-02-01T03:23:38.471Z,5.20
2023-02-01T03:24:39.178Z,5.17
2023-02-01T03:25:39.883Z,5.20
2023-02-01T03:26:40.640Z,5.20
2023-02-01T03:27:41.304Z,5.20
2023-02-01T03:28:42.024Z,5.21
2023-02-01T03:29:42.729Z,5.20
2023-02-01T03:30:43.458Z,5.20
2023-02-01T03:31:44.149Z,5.17
2023-02-01T03:32:44.848Z,5.18
2023-02-01T03:33:45.601Z,5.22
2023-02-01T03:34:46.252Z,5.28
2023-02-01T03:35:46.968Z,5.30
2023-02-01T03:36:47.668Z,5.30
2023-02-01T03:37:48.390Z,5.27
2023-02-01T03:38:49.091Z,5.25
2023-02-01T03:39:49.805Z,5.24
2023-02-01T03:40:50.513Z,5.24
2023-02-01T03:41:51.217Z,5.24
2023-02-01T03:42:51.933Z,5.24
2023-02-01T03:43:52.671Z,5.24
2023-02-01T03:44:53.386Z,5.22
2023-02-01T03:45:54.183Z,5.22
2023-02-01T03:46:54.862Z,5.22
2023-02-01T03:47:55.641Z,5.25
2023-02-01T03:48:56.386Z,5.21
2023-02-01T03:49:57.013Z,5.24
2023-02-01T03:50:57.723Z,5.22
2023-02-01T03:51:58.626Z,5.20
2023-02-01T03:52:59.651Z,5.21
2023-02-01T03:53:59.859Z,5.22
2023-02-01T03:55:00.567Z,5.18
2023-02-01T03:56:01.278Z,5.17
2023-02-01T03:57:01.992Z,5.17
2023-02-01T03:58:03.144Z,5.18
2023-02-01T03:59:03.368Z,5.20
2023-02-01T04:00:04.078Z,5.20
2023-02-01T04:01:04.802Z,5.21
2023-02-01T04:02:05.515Z,5.21
2023-02-01T04:03:06.634Z,5.18
2023-02-01T04:04:06.983Z,5.15
2023-02-01T04:05:07.608Z,5.13
2023-02-01T04:06:08.316Z,5.15
2023-02-01T04:07:09.043Z,5.12
2023-02-01T04:08:10.135Z,5.13
2023-02-01T04:09:10.341Z,5.15
2023-02-01T04:10:11.050Z,5.15
2023-02-01T04:11:11.755Z,5.17
2023-02-01T04:12:12.556Z,5.15
2023-02-01T04:13:13.641Z,5.15
2023-02-01T04:14:13.847Z,5.13
2023-02-01T04:15:14.555Z,5.15
2023-02-01T04:16:15.337Z,5.13
2023-02-01T04:17:16.004Z,5.13
2023-02-01T04:18:17.138Z,5.21
2023-02-01T04:19:17.396Z,5.21
2023-02-01T04:20:18.053Z,5.21
2023-02-01T04:21:18.770Z,5.22
2023-02-01T04:22:19.469Z,5.22
2023-02-01T04:23:20.641Z,5.24
2023-02-01T04:24:20.846Z,5.28
2023-02-01T04:25:21.560Z,5.28
2023-02-01T04:26:22.320Z,5.30
2023-02-01T04:27:22.982Z,5.31
2023-02-01T04:28:23.699Z,5.31
2023-02-01T04:29:24.404Z,5.35
2023-02-01T04:30:25.609Z,5.33
2023-02-01T04:31:26.056Z,5.33
2023-02-01T04:32:26.741Z,5.30
2023-02-01T04:33:27.637Z,5.31
2023-02-01T04:34:28.516Z,5.31
2023-02-01T04:35:29.166Z,5.31
2023-02-01T04:36:29.869Z,5.31
2023-02-01T04:37:30.576Z,5.33
2023-02-01T04:38:31.294Z,5.33
2023-02-01T04:39:32.031Z,5.30
2023-02-01T04:40:32.713Z,5.33
2023-02-01T04:41:33.420Z,5.36
2023-02-01T04:42:34.146Z,5.36
2023-02-01T04:43:34.855Z,5.36
2023-02-01T04:44:35.579Z,5.36
2023-02-01T04:45:36.256Z,5.35
2023-02-01T04:46:36.973Z,5.33
2023-02-01T04:47:37.674Z,5.35
2023-02-01T04:48:38.390Z,5.35
2023-02-01T04:49:39.177Z,5.35
2023-02-01T04:50:39.800Z,5.33
2023-02-01T04:51:40.517Z,5.30
2023-02-01T04:52:41.219Z,5.28
2023-02-01T04:53:42.160Z,5.28
2023-02-01T04:54:42.867Z,5.31
2023-02-01T04:55:43.586Z,5.33
2023-02-01T04:56:44.295Z,5.31
2023-02-01T04:57:45.005Z,5.30
2023-02-01T04:58:45.715Z,5.31
2023-02-01T04:59:46.429Z,5.31
2023-02-01T05:00:47.140Z,5.31
2023-02-01T05:01:48.973Z,5.33
2023-02-01T05:02:48.715Z,5.38
2023-02-01T05:03:49.430Z,5.35
2023-02-01T05:04:50.194Z,5.36
2023-02-01T05:05:50.835Z,5.35
2023-02-01T05:06:51.545Z,5.35
2023-02-01T05:07:52.249Z,5.36
2023-02-01T05:08:52.967Z,5.36
2023-02-01T05:09:53.674Z,5.36
2023-02-01T05:10:54.378Z,5.36
2023-02-01T05:11:55.087Z,5.38
2023-02-01T05:12:55.804Z,5.39
2023-02-01T05:13:56.516Z,5.38
2023-02-01T05:14:57.217Z,5.35
2023-02-01T05:15:58.019Z,5.36
2023-02-01T05:16:58.751Z,5.36
2023-02-01T05:17:59.466Z,5.38
2023-02-01T05:19:00.179Z,5.36
2023-02-01T05:20:00.932Z,5.39
2023-02-01T05:21:01.572Z,5.40
2023-02-01T05:22:02.277Z,5.39
2023-02-01T05:23:02.996Z,5.39
2023-02-01T05:24:04.145Z,5.39
2023-02-01T05:25:05.127Z,5.36
2023-02-01T05:26:04.897Z,5.35
2023-02-01T05:27:05.606Z,5.35
2023-02-01T05:28:06.324Z,5.35
2023-02-01T05:29:07.142Z,5.36
2023-02-01T05:30:07.852Z,5.33
2023-02-01T05:31:08.583Z,5.40
2023-02-01T05:32:21.537Z,5.42
2023-02-01T05:33:10.880Z,5.42
2023-02-01T05:34:10.640Z,5.42
2023-02-01T05:35:11.400Z,5.42
2023-02-01T05:36:12.039Z,5.45
2023-02-01T05:37:12.753Z,5.48
2023-02-01T05:38:13.460Z,5.46
2023-02-01T05:39:14.177Z,5.46
2023-02-01T05:40:14.896Z,5.43
2023-02-01T05:41:15.591Z,5.42
2023-02-01T05:42:16.325Z,5.42
2023-02-01T05:43:17.166Z,5.43
2023-02-01T05:44:17.880Z,5.45
2023-02-01T05:45:18.586Z,5.45
2023-02-01T05:46:19.321Z,5.45
2023-02-01T05:47:20.004Z,5.45
2023-02-01T05:48:20.743Z,5.43
2023-02-01T05:49:21.458Z,5.43
2023-02-01T05:50:22.606Z,5.43
2023-02-01T05:51:22.829Z,5.42
2023-02-01T05:52:23.541Z,5.39
2023-02-01T05:53:24.250Z,5.38
2023-02-01T05:54:25.167Z,5.38
2023-02-01T05:55:25.883Z,5.35
2023-02-01T05:56:26.585Z,5.35
2023-02-01T05:57:27.294Z,5.33
2023-02-01T05:59:37.693Z,5.33
2023-02-01T06:00:38.396Z,5.31
2023-02-01T06:01:39.104Z,5.28
2023-02-01T06:02:39.830Z,5.30
2023-02-01T06:03:40.565Z,5.28
2023-02-01T06:04:41.690Z,5.28
2023-02-01T06:05:41.951Z,5.25
2023-02-01T06:06:42.617Z,5.25
2023-02-01T06:07:43.317Z,5.24
2023-02-01T06:08:44.059Z,5.25
2023-02-01T06:09:44.774Z,5.24
2023-02-01T06:10:45.483Z,5.24
2023-02-01T06:11:46.203Z,5.25
2023-02-01T06:12:46.910Z,5.27
2023-02-01T06:13:47.611Z,5.24
2023-02-01T06:14:48.704Z,5.24
2023-02-01T06:15:48.934Z,5.27
2023-02-01T06:16:49.623Z,5.27
2023-02-01T06:17:50.337Z,5.25
2023-02-01T06:18:51.042Z,5.27
2023-02-01T06:19:52.196Z,5.30
2023-02-01T06:20:52.444Z,5.30
2023-02-01T06:21:53.096Z,5.33
2023-02-01T06:22:53.816Z,5.33
2023-02-01T06:23:54.497Z,5.35
2023-02-01T06:24:55.705Z,5.36
2023-02-01T06:25:55.917Z,5.36
2023-02-01T06:26:56.626Z,5.39
2023-02-01T06:27:57.332Z,5.39
2023-02-01T06:28:58.041Z,5.40
2023-02-01T06:29:59.194Z,5.45
2023-02-01T06:30:59.576Z,5.46
2023-02-01T06:32:00.396Z,5.43
2023-02-01T06:33:01.069Z,5.42
2023-02-01T06:34:01.765Z,5.43
2023-02-01T06:35:02.518Z,5.40
2023-02-01T06:36:03.315Z,5.42
2023-02-01T06:37:03.947Z,5.42
2023-02-01T06:38:04.649Z,5.42
2023-02-01T06:39:05.356Z,5.42
2023-02-01T06:40:06.081Z,5.43
2023-02-01T06:41:06.806Z,5.45
2023-02-01T06:42:07.496Z,5.46
2023-02-01T06:43:08.199Z,5.48
2023-02-01T06:44:08.906Z,5.53
2023-02-01T06:45:09.696Z,5.48
2023-02-01T06:46:10.446Z,5.48
2023-02-01T06:47:11.111Z,5.49
2023-02-01T06:48:11.817Z,5.51
2023-02-01T06:49:12.533Z,5.51
2023-02-01T06:50:13.263Z,5.49
2023-02-01T06:51:13.993Z,5.53
2023-02-01T06:52:14.638Z,5.53
2023-02-01T06:53:15.353Z,5.51
2023-02-01T06:54:16.055Z,5.51
2023-02-01T06:55:17.220Z,5.56
2023-02-01T06:56:17.426Z,5.57
2023-02-01T06:57:18.133Z,5.60
2023-02-01T06:58:18.843Z,5.57
2023-02-01T06:59:19.554Z,5.56
2023-02-01T07:00:20.713Z,5.54
2023-02-01T07:01:20.909Z,5.56
2023-02-01T07:02:21.638Z,5.54
2023-02-01T07:03:22.356Z,5.54
2023-02-01T07:04:23.063Z,5.54
2023-02-01T07:05:23.781Z,5.53
2023-02-01T07:06:24.527Z,5.56
2023-02-01T07:07:25.197Z,5.57
2023-02-01T07:08:25.920Z,5.57
2023-02-01T07:09:26.611Z,5.56
2023-02-01T07:10:27.704Z,5.56
2023-02-01T07:11:27.910Z,5.54
2023-02-01T07:12:28.636Z,5.54
2023-02-01T07:13:29.374Z,5.54
2023-02-01T07:14:30.091Z,5.53
2023-02-01T07:15:31.204Z,5.53
2023-02-01T07:16:31.473Z,5.53
2023-02-01T07:17:32.130Z,5.53
2023-02-01T07:18:32.834Z,5.56
2023-02-01T07:19:33.551Z,5.56
2023-02-01T07:20:34.713Z,5.54
2023-02-01T07:21:34.957Z,5.56
2023-02-01T07:22:35.607Z,5.57
2023-02-01T07:23:36.313Z,5.57
2023-02-01T07:24:37.019Z,5.57
2023-02-01T07:25:37.750Z,5.57
2023-02-01T07:26:38.570Z,5.57
2023-02-01T07:27:39.247Z,5.57
2023-02-01T07:28:39.953Z,5.57
2023-02-01T07:29:40.659Z,5.56
2023-02-01T07:30:41.726Z,5.57
2023-02-01T07:31:41.928Z,5.58
2023-02-01T07:32:42.689Z,5.61
2023-02-01T07:33:43.616Z,5.63
2023-02-01T07:34:44.312Z,5.63
2023-02-01T07:35:45.198Z,5.60
2023-02-01T07:36:45.984Z,5.64
2023-02-01T07:37:46.628Z,5.64
2023-02-01T07:38:47.335Z,5.67
2023-02-01T07:39:48.059Z,5.65
2023-02-01T07:40:48.763Z,5.68
2023-02-01T07:41:49.469Z,5.71
2023-02-01T07:42:50.191Z,5.72
2023-02-01T07:43:50.895Z,5.72
2023-02-01T07:44:51.605Z,5.72
2023-02-01T07:45:52.716Z,5.74
2023-02-01T07:46:52.936Z,5.75
2023-02-01T07:47:53.640Z,5.75
2023-02-01T07:48:54.348Z,5.75
2023-02-01T07:49:55.058Z,5.76
2023-02-01T07:50:56.216Z,5.75
2023-02-01T07:51:56.462Z,5.76
2023-02-01T07:52:57.095Z,5.76
2023-02-01T07:53:57.814Z,5.79
2023-02-01T07:54:58.518Z,5.79
2023-02-01T07:55:59.723Z,5.76
2023-02-01T07:56:59.925Z,5.76
2023-02-01T07:58:00.634Z,5.76
2023-02-01T07:59:01.347Z,5.75
2023-02-01T08:00:02.225Z,5.75
2023-02-01T08:01:03.275Z,5.74
2023-02-01T08:02:03.481Z,5.78
2023-02-01T08:03:04.177Z,5.76
2023-02-01T08:04:04.886Z,5.79
2023-02-01T08:05:05.591Z,5.81
2023-02-01T08:06:06.309Z,5.82
2023-02-01T08:07:07.069Z,5.83
2023-02-01T08:08:07.697Z,5.83
2023-02-01T08:09:08.408Z,5.85
2023-02-01T08:10:09.121Z,5.85
2023-02-01T08:11:09.833Z,5.85
2023-02-01T08:12:10.580Z,5.85
2023-02-01T08:13:11.308Z,5.85
2023-02-01T08:14:12.095Z,5.86
2023-02-01T08:15:12.839Z,5.85
2023-02-01T08:16:13.572Z,5.89
2023-02-01T08:17:14.259Z,5.89
2023-02-01T08:18:14.966Z,5.90
2023-02-01T08:19:15.671Z,5.90
2023-02-01T08:20:16.386Z,5.91
2023-02-01T08:21:17.110Z,5.93
2023-02-01T08:22:17.868Z,5.94
2023-02-01T08:23:18.510Z,5.93
2023-02-01T08:24:19.217Z,5.91
2023-02-01T08:25:19.928Z,5.91
2023-02-01T08:26:20.679Z,5.90
2023-02-01T08:27:21.356Z,5.91
2023-02-01T08:28:22.061Z,5.90
2023-02-01T08:29:22.768Z,5.91
2023-02-01T08:30:23.846Z,5.90
2023-02-01T08:31:24.351Z,5.89
2023-02-01T08:32:25.069Z,5.90
2023-02-01T08:33:25.774Z,5.90
2023-02-01T08:34:26.487Z,5.91
2023-02-01T08:35:41.497Z,5.90
2023-02-01T08:36:29.240Z,5.93
2023-02-01T08:37:28.467Z,5.96
2023-02-01T08:38:29.108Z,5.96
2023-02-01T08:39:29.815Z,5.97
2023-02-01T08:40:30.531Z,5.97
2023-02-01T08:41:31.704Z,6.00
2023-02-01T08:42:31.944Z,6.01
2023-02-01T08:43:32.646Z,6.01
2023-02-01T08:44:33.374Z,6.04
2023-02-01T08:45:34.119Z,6.03
2023-02-01T08:46:35.291Z,6.04
2023-02-01T08:47:35.469Z,6.06
2023-02-01T08:48:36.191Z,6.06
2023-02-01T08:49:36.903Z,6.08
2023-02-01T08:50:37.616Z,6.08
2023-02-01T08:51:38.703Z,6.09
2023-02-01T08:52:38.993Z,6.11
2023-02-01T08:53:39.626Z,6.14
2023-02-01T08:54:40.330Z,6.14
2023-02-01T08:55:41.074Z,6.18
2023-02-01T08:56:42.309Z,6.25
2023-02-01T08:57:42.488Z,6.27
2023-02-01T08:58:43.202Z,6.28
2023-02-01T08:59:43.915Z,6.30
2023-02-01T09:00:44.629Z,6.28
2023-02-01T09:01:45.846Z,6.27
2023-02-01T09:02:46.014Z,6.30
2023-02-01T09:03:47.123Z,6.36
2023-02-01T09:04:47.303Z,6.36
2023-02-01T09:05:49.700Z,6.36
2023-02-01T09:06:48.696Z,6.33
2023-02-01T09:07:49.457Z,6.30
2023-02-01T09:08:50.092Z,6.25
2023-02-01T09:09:50.802Z,6.25
2023-02-01T09:10:51.512Z,6.21
2023-02-01T09:11:52.227Z,6.27
2023-02-01T09:12:52.935Z,6.28
2023-02-01T09:13:53.647Z,6.27
2023-02-01T09:14:54.448Z,6.28
2023-02-01T09:15:55.192Z,6.31
2023-02-01T09:16:56.228Z,6.31
2023-02-01T09:17:56.426Z,6.33
2023-02-01T09:19:23.979Z,6.33
2023-02-01T09:19:58.742Z,6.34
2023-02-01T09:20:58.489Z,6.36
2023-02-01T09:21:59.207Z,6.36
2023-02-01T09:22:59.970Z,6.40
2023-02-01T09:24:00.623Z,6.44
2023-02-01T09:25:01.376Z,6.51
2023-02-01T09:26:02.052Z,6.49
2023-02-01T09:27:03.253Z,6.46
2023-02-01T09:28:03.461Z,6.44
2023-02-01T09:29:04.176Z,6.46
2023-02-01T09:30:04.885Z,6.46
2023-02-01T09:31:05.724Z,6.44
2023-02-01T09:32:06.925Z,6.43
2023-02-01T09:33:07.107Z,6.43
2023-02-01T09:34:07.853Z,6.46
2023-02-01T09:35:08.573Z,6.52
2023-02-01T09:36:09.294Z,6.46
2023-02-01T09:37:10.012Z,6.43
2023-02-01T09:38:10.788Z,6.44
2023-02-01T09:39:11.415Z,6.43
2023-02-01T09:40:12.134Z,6.40
2023-02-01T09:41:12.865Z,6.40
2023-02-01T09:42:13.593Z,6.43
2023-02-01T09:43:14.261Z,6.46
2023-02-01T09:44:14.980Z,6.51
2023-02-01T09:45:15.677Z,6.55
2023-02-01T09:46:16.462Z,6.56
2023-02-01T09:47:17.222Z,6.56
2023-02-01T09:48:17.926Z,6.56
2023-02-01T09:49:18.631Z,6.62
2023-02-01T09:50:19.341Z,6.67
2023-02-01T09:51:20.066Z,6.70
2023-02-01T09:52:21.289Z,6.70
2023-02-01T09:53:21.549Z,6.70
2023-02-01T09:54:22.189Z,6.69
2023-02-01T09:55:22.910Z,6.70
2023-02-01T09:56:23.624Z,6.70
2023-02-01T09:57:24.741Z,6.70
2023-02-01T09:58:24.952Z,6.71
2023-02-01T09:59:25.680Z,6.67
2023-02-01T10:00:26.925Z,6.66
2023-02-01T10:01:27.374Z,6.67
2023-02-01T10:02:28.211Z,6.66
2023-02-01T10:03:29.017Z,6.66
2023-02-01T10:04:29.719Z,6.62
2023-02-01T10:05:30.421Z,6.62
2023-02-01T10:06:31.298Z,6.62
2023-02-01T10:07:31.935Z,6.66
2023-02-01T10:08:32.736Z,6.67
2023-02-01T10:09:33.365Z,6.67
2023-02-01T10:10:34.069Z,6.69
2023-02-01T10:11:34.775Z,6.67
2023-02-01T10:12:35.721Z,6.64
2023-02-01T10:13:36.428Z,6.67
2023-02-01T10:14:37.140Z,6.66
2023-02-01T10:15:37.868Z,6.67
2023-02-01T10:16:38.694Z,6.71
2023-02-01T10:17:39.364Z,6.77
2023-02-01T10:18:40.072Z,6.79
2023-02-01T10:19:40.782Z,6.77
2023-02-01T10:20:41.488Z,6.80
2023-02-01T10:21:42.201Z,6.79
2023-02-01T10:23:10.312Z,6.77
2023-02-01T10:23:44.922Z,6.84
2023-02-01T10:24:44.565Z,6.84
2023-02-01T10:25:45.278Z,6.84
2023-02-01T10:26:46.029Z,6.84
2023-02-01T10:27:46.715Z,6.84
2023-02-01T10:28:47.591Z,6.85
2023-02-01T10:29:48.291Z,6.85
2023-02-01T10:30:49.237Z,6.88
2023-02-01T10:31:50.133Z,6.88
2023-02-01T10:32:51.213Z,6.88
2023-02-01T10:33:51.421Z,6.88
2023-02-01T10:34:52.136Z,6.89
2023-02-01T10:35:52.844Z,6.91
2023-02-01T10:36:53.556Z,6.91
2023-02-01T10:37:54.710Z,6.85
2023-02-01T10:38:54.962Z,6.85
2023-02-01T10:39:55.610Z,6.84
2023-02-01T10:40:56.320Z,6.79
2023-02-01T10:41:57.087Z,6.79
2023-02-01T10:42:58.214Z,6.79
2023-02-01T10:43:58.447Z,6.80
2023-02-01T10:44:59.133Z,6.79
2023-02-01T10:45:59.906Z,6.79
2023-02-01T10:47:00.587Z,6.80
2023-02-01T10:48:01.714Z,6.79
2023-02-01T10:49:01.958Z,6.77
2023-02-01T10:50:02.645Z,6.79
2023-02-01T10:51:03.352Z,6.80
2023-02-01T10:52:04.069Z,6.80
2023-02-01T10:53:05.213Z,6.77
2023-02-01T10:54:05.461Z,6.84
2023-02-01T10:55:06.090Z,6.88
2023-02-01T10:56:06.798Z,6.94
2023-02-01T10:57:07.532Z,6.95
2023-02-01T10:58:08.740Z,6.94
2023-02-01T10:59:08.941Z,6.92
2023-02-01T11:00:09.645Z,6.91
2023-02-01T11:01:10.365Z,6.88
2023-02-01T11:02:11.084Z,6.85
2023-02-01T11:03:12.014Z,6.85
2023-02-01T11:04:12.697Z,6.80
2023-02-01T11:05:13.482Z,6.79
2023-02-01T11:06:14.113Z,6.79
2023-02-01T11:07:14.824Z,6.77
2023-02-01T11:08:15.717Z,6.77
2023-02-01T11:09:16.468Z,6.76
2023-02-01T11:10:17.099Z,6.76
2023-02-01T11:11:19.409Z,6.76
2023-02-01T11:12:18.445Z,6.76
2023-02-01T11:13:19.166Z,6.77
2023-02-01T11:14:19.879Z,6.79
2023-02-01T11:15:20.815Z,6.77
2023-02-01T11:16:21.550Z,6.77
2023-02-01T11:17:22.263Z,6.76
2023-02-01T11:18:23.219Z,6.76
2023-02-01T11:19:23.924Z,6.77
2023-02-01T11:20:24.636Z,6.76
2023-02-01T11:21:25.368Z,6.76
2023-02-01T11:22:26.047Z,6.79
2023-02-01T11:23:26.772Z,6.79
2023-02-01T11:24:27.571Z,6.81
2023-02-01T11:25:28.207Z,6.79
2023-02-01T11:26:28.946Z,6.81
2023-02-01T11:27:29.619Z,6.87
2023-02-01T11:28:30.713Z,6.92
2023-02-01T11:29:31.008Z,6.89
2023-02-01T11:30:31.736Z,6.91
2023-02-01T11:31:32.434Z,6.91
2023-02-01T11:32:33.108Z,6.92
2023-02-01T11:33:33.813Z,6.94
2023-02-01T11:34:34.532Z,6.89
2023-02-01T11:35:35.245Z,6.89
2023-02-01T11:36:35.949Z,6.89
2023-02-01T11:37:36.655Z,6.89
2023-02-01T11:38:37.371Z,6.94
2023-02-01T11:39:38.121Z,6.97
2023-02-01T11:40:38.785Z,6.95
2023-02-01T11:41:39.472Z,6.94
2023-02-01T11:42:40.212Z,6.92
2023-02-01T11:43:41.214Z,6.92
2023-02-01T11:44:41.420Z,6.92
2023-02-01T11:45:42.130Z,6.92
2023-02-01T11:46:42.895Z,6.91
2023-02-01T11:47:43.578Z,6.94
2023-02-01T11:48:44.712Z,6.94
2023-02-01T11:49:44.920Z,6.95
2023-02-01T11:50:45.643Z,7.02
2023-02-01T11:51:46.340Z,7.05
2023-02-01T11:52:47.069Z,7.05
2023-02-01T11:53:48.213Z,7.05
2023-02-01T11:54:48.463Z,7.05
2023-02-01T11:55:49.113Z,7.02
2023-02-01T11:56:49.812Z,6.97
2023-02-01T11:57:50.527Z,6.97
2023-02-01T11:58:51.732Z,6.95
2023-02-01T11:59:56.776Z,6.94
2023-02-01T12:00:53.557Z,6.94
2023-02-01T12:01:53.299Z,6.95
2023-02-01T12:02:53.984Z,6.95
2023-02-01T12:03:54.672Z,6.95
2023-02-01T12:04:55.376Z,6.92
2023-02-01T12:05:56.082Z,6.85
2023-02-01T12:06:56.789Z,6.80
2023-02-01T12:07:57.497Z,6.73
2023-02-01T12:08:58.221Z,6.67
2023-02-01T12:09:59.040Z,6.58
2023-02-01T12:10:59.678Z,6.51
2023-02-01T12:12:00.380Z,6.44
2023-02-01T12:13:01.097Z,6.40
2023-02-01T12:14:02.214Z,6.36
2023-02-01T12:15:02.433Z,6.33
2023-02-01T12:16:03.177Z,6.28
2023-02-01T12:17:03.858Z,6.25
2023-02-01T12:18:04.560Z,6.19
2023-02-01T12:19:05.718Z,6.18
2023-02-01T12:20:05.945Z,6.18
2023-02-01T12:21:06.630Z,6.14
2023-02-01T12:22:07.342Z,6.12
2023-02-01T12:23:08.056Z,6.11
2023-02-01T12:24:09.218Z,6.09
2023-02-01T12:25:09.471Z,6.08
2023-02-01T12:26:10.132Z,6.09
2023-02-01T12:27:10.834Z,6.09
2023-02-01T12:28:11.568Z,6.06
2023-02-01T12:29:12.716Z,6.08
2023-02-01T12:30:12.937Z,6.06
2023-02-01T12:31:13.686Z,6.08
2023-02-01T12:32:14.415Z,6.09
2023-02-01T12:33:15.123Z,6.11
2023-02-01T12:34:15.843Z,6.12
2023-02-01T12:35:16.576Z,6.12
2023-02-01T12:36:17.270Z,6.12
2023-02-01T12:37:17.987Z,6.15
2023-02-01T12:38:18.777Z,6.15
2023-02-01T12:39:19.480Z,6.18
2023-02-01T12:40:20.233Z,6.19
2023-02-01T12:41:20.900Z,6.17
2023-02-01T12:42:21.606Z,6.18
2023-02-01T12:43:22.323Z,6.19
2023-02-01T12:44:23.223Z,6.18
2023-02-01T12:45:23.928Z,6.18
2023-02-01T12:46:24.637Z,6.18
2023-02-01T12:47:25.344Z,6.18
2023-02-01T12:48:26.056Z,6.19
2023-02-01T12:49:27.219Z,6.18
2023-02-01T12:50:27.429Z,6.18
2023-02-01T12:51:28.139Z,6.15
2023-02-01T12:52:28.858Z,6.19
2023-02-01T12:53:29.554Z,6.21
2023-02-01T12:54:30.718Z,6.22
2023-02-01T12:55:30.965Z,6.22
2023-02-01T12:56:31.634Z,6.27
2023-02-01T12:57:32.332Z,6.28
2023-02-01T12:58:33.050Z,6.27
2023-02-01T12:59:33.787Z,6.27
2023-02-01T13:00:34.506Z,6.28
2023-02-01T13:01:35.225Z,6.27
2023-02-01T13:02:36.040Z,6.30
2023-02-01T13:03:36.708Z,6.30
2023-02-01T13:04:37.429Z,6.30
2023-02-01T13:05:38.133Z,6.31
2023-02-01T13:06:38.843Z,6.33
2023-02-01T13:07:39.563Z,6.34
2023-02-01T13:08:40.272Z,6.36
2023-02-01T13:09:40.984Z,6.37
2023-02-01T13:10:41.737Z,6.37
2023-02-01T13:11:42.388Z,6.40
2023-02-01T13:12:43.098Z,6.40
2023-02-01T13:13:43.815Z,6.40
2023-02-01T13:14:44.718Z,6.40
2023-02-01T13:15:45.429Z,6.40
2023-02-01T13:16:46.174Z,6.38
2023-02-01T13:17:46.855Z,6.34
2023-02-01T13:18:47.560Z,6.28
2023-02-01T13:19:48.722Z,6.30
2023-02-01T13:20:48.943Z,6.31
2023-02-01T13:21:49.657Z,6.28
2023-02-01T13:22:50.509Z,6.27
2023-02-01T13:23:53.739Z,6.28
2023-02-01T13:24:52.433Z,6.30
2023-02-01T13:25:52.624Z,6.31
2023-02-01T13:26:53.325Z,6.33
2023-02-01T13:27:54.189Z,6.34
2023-02-01T13:28:54.922Z,6.37